Concord, CA (94521)

1:34 PM PDT on August 27, 2016 (GMT -0700)
| | Change Station

Elev -9999 ft 0.00 °N, 0.00 °E | Updated

Clear
Clear
77 °F
Feels Like 77 °F
N
13
Wind Variable Wind from West
Gusts mph

Today
High -- | Low -- °F
--% Chance of Precip.
Yesterday
High -- | Low -- °F
Precip. -- in
Pressure 29.95 in
Visibility 10.0 miles
Clouds Clear
Dew Point 52 °F
Humidity 43%
Rainfall --
Snow Depth Not available.
6:33 AM 7:43 PM
Waning Crescent, 21% visible
METAR KCCR 271953Z 27013KT 10SM CLR 23/11 A2999 RMK AO2 SLP141 T02330111
Pressure 29.95 in
Visibility 10.0 miles
Clouds Clear
Dew Point 52 °F
Humidity 43%
Rainfall --
Snow Depth Not available.
6:33 AM 7:43 PM
Waning Crescent, 21% visible
METAR KCCR 271953Z 27013KT 10SM CLR 23/11 A2999 RMK AO2 SLP141 T02330111

10-Day Weather Forecast

Almanac

Astronomy

Aug. 27, 2016 Rise Set
Actual Time
Civil Twilight
Nautical Twilight
Astronomical Twilight
Moon
Length of Visible Light
Length of Day
Tomorrow will be .
, % of the Moon is Illuminated

Today's Extremes

State Highs State Lows

Community

WunderPhotos

Upload Photos

1,935,434 photos uploaded!

WunderBlog® & News

Nearby

Air Quality

  Air Quality AQ Index Pollutant
Not available.

Snow Depth

Station Depth Elevation

Earthquake Activity

City Distance Mag. Time & Date
Minimum magnitude displayed is 2.5.

Coastal Water Temperatures

Place Temperature

Stations

Nearby Weather Stations

Station Location Temp. Windchill Dew Point Humidity Wind Precip. Elev Updated Type
                   

Watches & Warnings

There are currently no watches in effect.